createdAt,value
2022-10-19T00:02:57.510Z,0
2022-10-19T00:08:27.090Z,0
2022-10-19T00:13:53.246Z,0
2022-10-19T00:19:37.841Z,0
2022-10-19T00:24:53.936Z,0
2022-10-19T00:30:31.138Z,0
2022-10-19T00:36:13.034Z,0
2022-10-19T00:41:58.074Z,0
2022-10-19T00:47:23.415Z,0
2022-10-19T00:52:53.816Z,0
2022-10-19T00:58:15.466Z,0
2022-10-19T01:04:05.633Z,0
2022-10-19T01:09:16.223Z,0
2022-10-19T01:15:05.799Z,0
2022-10-19T01:20:41.217Z,0
2022-10-19T01:26:14.504Z,0
2022-10-19T01:31:42.964Z,0
2022-10-19T01:37:03.439Z,0
2022-10-19T01:42:52.751Z,0
2022-10-19T01:48:28.776Z,0
2022-10-19T01:54:09.180Z,0
2022-10-19T01:59:29.747Z,0
2022-10-19T02:04:48.155Z,0
2022-10-19T02:10:37.335Z,0
2022-10-19T02:16:18.407Z,0
2022-10-19T02:21:42.384Z,0
2022-10-19T02:27:12.693Z,0
2022-10-19T02:32:40.005Z,0
2022-10-19T02:38:15.572Z,0
2022-10-19T02:43:56.454Z,0
2022-10-19T02:49:38.278Z,0
2022-10-19T02:55:05.527Z,0
2022-10-19T03:00:33.002Z,0
2022-10-19T03:06:06.674Z,0
2022-10-19T03:11:51.187Z,0
2022-10-19T03:17:08.425Z,0
2022-10-19T03:22:36.807Z,0
2022-10-19T03:28:16.504Z,0
2022-10-19T03:34:05.416Z,0
2022-10-19T03:39:23.935Z,0
2022-10-19T03:45:00.023Z,0
2022-10-19T03:50:33.831Z,0
2022-10-19T03:55:57.808Z,0
2022-10-19T04:01:30.592Z,0
2022-10-19T04:07:06.256Z,0
2022-10-19T04:12:42.447Z,0
2022-10-19T04:18:09.160Z,0
2022-10-19T04:23:44.389Z,0
2022-10-19T04:29:16.193Z,0
2022-10-19T04:34:55.383Z,0
2022-10-19T04:40:27.839Z,0
2022-10-19T04:46:09.427Z,0
2022-10-19T04:51:28.230Z,0
2022-10-19T04:56:54.203Z,0
2022-10-19T05:02:44.227Z,0
2022-10-19T05:08:16.472Z,0
2022-10-19T05:13:48.293Z,0
2022-10-19T05:19:19.771Z,0
2022-10-19T05:25:01.978Z,0
2022-10-19T05:30:13.193Z,0
2022-10-19T05:36:12.178Z,0
2022-10-19T05:41:42.095Z,0
2022-10-19T06:15:03.700Z,0
2022-10-19T06:20:32.972Z,0
2022-10-19T06:25:59.024Z,0
2022-10-19T06:31:44.487Z,0
2022-10-19T06:42:37.631Z,0
2022-10-19T06:48:28.507Z,0
2022-10-19T06:53:58.217Z,0
2022-10-19T06:59:15.613Z,0
2022-10-19T07:04:46.673Z,0
2022-10-19T07:10:17.731Z,0
2022-10-19T07:15:52.549Z,0
2022-10-19T07:21:46.501Z,0
2022-10-19T07:27:04.038Z,0
2022-10-19T07:32:47.440Z,0
2022-10-19T07:38:07.620Z,0
2022-10-19T07:43:54.862Z,0
2022-10-19T07:49:33.936Z,0
2022-10-19T07:54:48.852Z,0
2022-10-19T08:00:25.734Z,0
2022-10-19T08:06:14.786Z,0
2022-10-19T08:11:28.181Z,0
2022-10-19T08:17:13.263Z,0
2022-10-19T08:22:41.477Z,0
2022-10-19T08:28:16.857Z,0
2022-10-19T08:34:02.695Z,0
2022-10-19T08:39:18.263Z,3.6
2022-10-19T08:44:51.945Z,2.4
2022-10-19T08:50:19.073Z,0
2022-10-19T08:56:04.418Z,4.8
2022-10-19T09:01:48.879Z,3.6
2022-10-19T09:07:19.087Z,5.9
2022-10-19T09:12:59.905Z,4.8
2022-10-19T09:46:21.228Z,7.2
2022-10-19T09:57:22.451Z,5.9
2022-10-19T10:02:55.018Z,7.2
2022-10-19T10:08:38.831Z,8.4
2022-10-19T10:14:28.573Z,7.2
2022-10-19T10:19:44.374Z,8.4
2022-10-19T10:25:40.992Z,7.2
2022-10-19T10:30:56.638Z,5.9
2022-10-19T10:36:26.672Z,9.6
2022-10-19T10:42:13.265Z,5.9
2022-10-19T10:47:51.098Z,8.4
2022-10-19T10:53:34.547Z,7.2
2022-10-19T10:58:52.776Z,8.4
2022-10-19T11:04:25.638Z,8.4
2022-10-19T11:10:14.571Z,5.9
2022-10-19T11:15:35.595Z,5.9
2022-10-19T11:21:16.270Z,7.2
2022-10-19T11:26:54.981Z,8.4
2022-10-19T11:32:25.564Z,7.2
2022-10-19T11:37:49.986Z,5.9
2022-10-19T11:43:27.043Z,5.9
2022-10-19T11:48:55.455Z,4.8
2022-10-19T11:54:48.272Z,4.8
2022-10-19T12:00:14.832Z,4.8
2022-10-19T12:05:51.190Z,5.9
2022-10-19T12:11:23.939Z,5.9
2022-10-19T12:17:05.748Z,4.8
2022-10-19T12:22:39.893Z,3.6
2022-10-19T12:28:18.460Z,2.4
2022-10-19T12:33:39.843Z,5.9
2022-10-19T12:39:08.920Z,3.6
2022-10-19T12:45:03.612Z,3.6
2022-10-19T12:50:45.680Z,5.9
2022-10-19T12:56:17.370Z,3.6
2022-10-19T13:01:38.603Z,4.8
2022-10-19T13:07:13.559Z,5.9
2022-10-19T13:12:45.246Z,7.2
2022-10-19T13:18:31.644Z,4.8
2022-10-19T13:23:48.562Z,5.9
2022-10-19T13:29:34.717Z,3.6
2022-10-19T13:35:03.344Z,4.8
2022-10-19T13:40:36.243Z,7.2
2022-10-19T13:46:07.669Z,5.9
2022-10-19T13:51:55.364Z,5.9
2022-10-19T13:57:47.855Z,5.9
2022-10-19T14:03:09.312Z,7.2
2022-10-19T14:08:56.425Z,5.9
2022-10-19T14:14:29.291Z,5.9
2022-10-19T14:20:07.745Z,5.9
2022-10-19T14:25:32.599Z,5.9
2022-10-19T14:31:22.566Z,7.2
2022-10-19T14:36:41.001Z,5.9
2022-10-19T14:42:29.810Z,7.2
2022-10-19T14:47:53.178Z,5.9
2022-10-19T14:53:25.304Z,8.4
2022-10-19T14:59:09.596Z,7.2
2022-10-19T15:04:36.587Z,5.9
2022-10-19T15:10:12.181Z,4.8
2022-10-19T15:16:03.499Z,5.9
2022-10-19T15:21:12.800Z,5.9
2022-10-19T15:27:10.254Z,3.6
2022-10-19T15:32:19.910Z,4.8
2022-10-19T15:37:57.071Z,5.9
2022-10-19T15:43:55.624Z,3.6
2022-10-19T15:49:07.032Z,0
2022-10-19T15:55:06.447Z,0
2022-10-19T16:00:18.823Z,0
2022-10-19T16:06:07.969Z,0
2022-10-19T16:11:21.477Z,0
2022-10-19T16:16:59.559Z,0
2022-10-19T16:22:29.379Z,0
2022-10-19T16:28:02.348Z,0
2022-10-19T16:33:49.028Z,0
2022-10-19T16:39:22.035Z,0
2022-10-19T16:44:52.683Z,0
2022-10-19T16:50:40.906Z,0
2022-10-19T16:56:00.513Z,3.6
2022-10-19T17:01:46.083Z,5.9
2022-10-19T17:07:03.306Z,0
2022-10-19T17:12:46.585Z,0
2022-10-19T17:23:54.967Z,3.6
2022-10-19T17:29:17.170Z,0
2022-10-19T17:35:11.067Z,0
2022-10-19T17:40:39.799Z,0
2022-10-19T17:45:50.351Z,0
2022-10-19T17:51:33.339Z,0
2022-10-19T17:57:12.190Z,0
2022-10-19T18:02:30.007Z,0
2022-10-19T18:08:06.080Z,0
2022-10-19T18:14:00.941Z,0
2022-10-19T18:19:23.877Z,0
2022-10-19T18:25:06.820Z,0
2022-10-19T18:30:31.648Z,0
2022-10-19T18:35:51.802Z,0
2022-10-19T18:41:49.734Z,2.4
2022-10-19T18:46:58.933Z,4.8
2022-10-19T18:52:54.767Z,3.6
2022-10-19T18:58:25.457Z,0
2022-10-19T19:03:53.696Z,0
2022-10-19T19:14:47.878Z,0
2022-10-19T19:20:36.512Z,0
2022-10-19T19:26:19.379Z,0
2022-10-19T19:31:48.394Z,0
2022-10-19T19:37:11.185Z,0
2022-10-19T19:42:58.658Z,0
2022-10-19T19:48:31.115Z,0
2022-10-19T19:53:40.213Z,0
2022-10-19T20:04:54.209Z,0
2022-10-19T20:10:27.205Z,0
2022-10-19T20:15:53.502Z,0
2022-10-19T20:21:36.481Z,0
2022-10-19T20:27:21.027Z,0
2022-10-19T20:32:37.613Z,0
2022-10-19T20:38:08.195Z,0
2022-10-19T20:43:43.342Z,0
2022-10-19T20:49:13.808Z,0
2022-10-19T20:54:58.800Z,0
2022-10-19T21:00:38.574Z,0
2022-10-19T21:06:16.554Z,0
2022-10-19T21:11:49.549Z,0
2022-10-19T21:17:12.659Z,0
2022-10-19T21:22:45.629Z,0
2022-10-19T21:28:21.600Z,0
2022-10-19T21:33:42.418Z,0
2022-10-19T21:45:25.496Z,0
2022-10-19T21:50:37.523Z,0
2022-10-19T21:56:19.352Z,0
2022-10-19T22:01:28.036Z,0
2022-10-19T22:07:21.401Z,0
2022-10-19T22:12:43.781Z,0
2022-10-19T22:18:10.687Z,0
2022-10-19T22:23:50.006Z,0
2022-10-19T22:29:18.170Z,0
2022-10-19T22:35:06.907Z,0
2022-10-19T22:40:15.691Z,0
2022-10-19T22:46:07.112Z,0
2022-10-19T22:51:22.949Z,0
2022-10-19T22:57:12.183Z,0
2022-10-19T23:02:55.181Z,0
2022-10-19T23:08:29.211Z,0
2022-10-19T23:14:03.511Z,0
2022-10-19T23:19:25.443Z,0
2022-10-19T23:25:03.808Z,0
2022-10-19T23:30:27.750Z,0
2022-10-19T23:36:05.167Z,0
2022-10-19T23:41:30.349Z,0
2022-10-19T23:46:55.275Z,0
2022-10-19T23:52:28.855Z,0
2022-10-19T23:58:30.588Z,0
